sensor_id;sensor_type;location;lat;lon;timestamp;pressure;altitude;pressure_sealevel;temperature;humidity
3160;BME280;1591;51.486;7.146;2022-08-21T00:00:53;72626.59;;;20.01;100.00
3160;BME280;1591;51.486;7.146;2022-08-21T00:03:21;72624.28;;;19.99;100.00
3160;BME280;1591;51.486;7.146;2022-08-21T00:05:50;72619.03;;;19.95;100.00
3160;BME280;1591;51.486;7.146;2022-08-21T00:08:18;72613.34;;;19.92;100.00
3160;BME280;1591;51.486;7.146;2022-08-21T00:10:47;72607.09;;;19.89;100.00
3160;BME280;1591;51.486;7.146;2022-08-21T00:13:17;72600.13;;;19.83;100.00
3160;BME280;1591;51.486;7.146;2022-08-21T00:15:46;72593.03;;;19.74;100.00
3160;BME280;1591;51.486;7.146;2022-08-21T00:18:15;72583.13;;;19.66;100.00
3160;BME280;1591;51.486;7.146;2022-08-21T00:20:44;72564.81;;;19.55;100.00
3160;BME280;1591;51.486;7.146;2022-08-21T00:23:12;72566.00;;;19.46;100.00
3160;BME280;1591;51.486;7.146;2022-08-21T00:25:41;72560.06;;;19.39;100.00
3160;BME280;1591;51.486;7.146;2022-08-21T00:28:10;72544.03;;;19.30;100.00
3160;BME280;1591;51.486;7.146;2022-08-21T00:30:39;72542.59;;;19.24;100.00
3160;BME280;1591;51.486;7.146;2022-08-21T00:33:08;72528.47;;;19.19;100.00
3160;BME280;1591;51.486;7.146;2022-08-21T00:35:39;72528.81;;;19.14;100.00
3160;BME280;1591;51.486;7.146;2022-08-21T00:38:09;72518.47;;;19.08;100.00
3160;BME280;1591;51.486;7.146;2022-08-21T00:40:41;72508.16;;;19.01;100.00
3160;BME280;1591;51.486;7.146;2022-08-21T00:43:12;72505.09;;;18.96;100.00
3160;BME280;1591;51.486;7.146;2022-08-21T00:45:40;72502.19;;;18.93;100.00
3160;BME280;1591;51.486;7.146;2022-08-21T00:48:07;72501.19;;;18.95;100.00
3160;BME280;1591;51.486;7.146;2022-08-21T00:50:40;72510.19;;;18.98;100.00
3160;BME280;1591;51.486;7.146;2022-08-21T00:53:10;72515.88;;;19.00;100.00
3160;BME280;1591;51.486;7.146;2022-08-21T00:55:38;72510.94;;;19.01;100.00
3160;BME280;1591;51.486;7.146;2022-08-21T00:58:11;72528.81;;;19.04;100.00
3160;BME280;1591;51.486;7.146;2022-08-21T01:00:42;72524.16;;;19.10;100.00
3160;BME280;1591;51.486;7.146;2022-08-21T01:03:15;72530.81;;;19.21;100.00
3160;BME280;1591;51.486;7.146;2022-08-21T01:05:43;72535.03;;;19.27;100.00
3160;BME280;1591;51.486;7.146;2022-08-21T01:08:12;72550.47;;;19.35;100.00
3160;BME280;1591;51.486;7.146;2022-08-21T01:10:40;72566.31;;;19.42;100.00
3160;BME280;1591;51.486;7.146;2022-08-21T01:13:10;72568.91;;;19.49;100.00
3160;BME280;1591;51.486;7.146;2022-08-21T01:15:45;72561.63;;;19.47;100.00
3160;BME280;1591;51.486;7.146;2022-08-21T01:18:17;72562.09;;;19.45;100.00
3160;BME280;1591;51.486;7.146;2022-08-21T01:20:59;72557.00;;;19.43;100.00
3160;BME280;1591;51.486;7.146;2022-08-21T01:23:28;72552.19;;;19.37;100.00
3160;BME280;1591;51.486;7.146;2022-08-21T01:25:55;72539.53;;;19.28;100.00
3160;BME280;1591;51.486;7.146;2022-08-21T01:28:22;72534.59;;;19.19;100.00
3160;BME280;1591;51.486;7.146;2022-08-21T01:30:52;72518.03;;;19.10;100.00
3160;BME280;1591;51.486;7.146;2022-08-21T01:33:22;72514.13;;;18.99;100.00
3160;BME280;1591;51.486;7.146;2022-08-21T01:35:51;72499.31;;;18.91;100.00
3160;BME280;1591;51.486;7.146;2022-08-21T01:38:20;72494.53;;;18.84;100.00
3160;BME280;1591;51.486;7.146;2022-08-21T01:40:47;72484.66;;;18.76;100.00
3160;BME280;1591;51.486;7.146;2022-08-21T01:43:14;72476.94;;;18.67;100.00
3160;BME280;1591;51.486;7.146;2022-08-21T01:45:41;72459.38;;;18.59;100.00
3160;BME280;1591;51.486;7.146;2022-08-21T01:48:08;72456.63;;;18.49;100.00
3160;BME280;1591;51.486;7.146;2022-08-21T01:50:37;72435.69;;;18.41;100.00
3160;BME280;1591;51.486;7.146;2022-08-21T01:53:04;72434.25;;;18.35;100.00
3160;BME280;1591;51.486;7.146;2022-08-21T01:55:33;72421.59;;;18.26;100.00
3160;BME280;1591;51.486;7.146;2022-08-21T01:58:00;72425.09;;;18.19;100.00
3160;BME280;1591;51.486;7.146;2022-08-21T02:00:28;72400.97;;;18.13;100.00
3160;BME280;1591;51.486;7.146;2022-08-21T02:02:55;72409.72;;;18.11;100.00
3160;BME280;1591;51.486;7.146;2022-08-21T02:05:22;72402.31;;;18.07;100.00
3160;BME280;1591;51.486;7.146;2022-08-21T02:07:52;72397.66;;;18.03;100.00
3160;BME280;1591;51.486;7.146;2022-08-21T02:10:26;72394.75;;;18.00;100.00
3160;BME280;1591;51.486;7.146;2022-08-21T02:12:56;72390.13;;;17.96;100.00
3160;BME280;1591;51.486;7.146;2022-08-21T02:15:24;72393.47;;;17.97;100.00
3160;BME280;1591;51.486;7.146;2022-08-21T02:17:55;72393.31;;;17.94;100.00
3160;BME280;1591;51.486;7.146;2022-08-21T02:20:27;72379.81;;;17.90;100.00
3160;BME280;1591;51.486;7.146;2022-08-21T02:22:55;72372.41;;;17.86;100.00
3160;BME280;1591;51.486;7.146;2022-08-21T02:25:24;72365.59;;;17.82;100.00
3160;BME280;1591;51.486;7.146;2022-08-21T02:27:53;72376.34;;;17.77;100.00
3160;BME280;1591;51.486;7.146;2022-08-21T02:30:26;72364.00;;;17.74;100.00
3160;BME280;1591;51.486;7.146;2022-08-21T02:32:54;72364.44;;;17.72;100.00
3160;BME280;1591;51.486;7.146;2022-08-21T02:35:22;72361.38;;;17.67;100.00
3160;BME280;1591;51.486;7.146;2022-08-21T02:37:53;72363.41;;;17.64;100.00
3160;BME280;1591;51.486;7.146;2022-08-21T02:40:24;72361.53;;;17.60;100.00
3160;BME280;1591;51.486;7.146;2022-08-21T02:42:53;72346.88;;;17.54;100.00
3160;BME280;1591;51.486;7.146;2022-08-21T02:45:21;72347.91;;;17.53;100.00
3160;BME280;1591;51.486;7.146;2022-08-21T02:47:49;72338.44;;;17.52;100.00
3160;BME280;1591;51.486;7.146;2022-08-21T02:50:19;72341.47;;;17.47;100.00
3160;BME280;1591;51.486;7.146;2022-08-21T02:52:47;72333.53;;;17.42;100.00
3160;BME280;1591;51.486;7.146;2022-08-21T02:55:15;72327.25;;;17.39;100.00
3160;BME280;1591;51.486;7.146;2022-08-21T02:57:42;72324.38;;;17.37;100.00
3160;BME280;1591;51.486;7.146;2022-08-21T03:00:11;72321.00;;;17.36;100.00
3160;BME280;1591;51.486;7.146;2022-08-21T03:02:40;72320.56;;;17.38;100.00
3160;BME280;1591;51.486;7.146;2022-08-21T03:05:09;72326.53;;;17.36;100.00
3160;BME280;1591;51.486;7.146;2022-08-21T03:07:36;72327.13;;;17.37;100.00
3160;BME280;1591;51.486;7.146;2022-08-21T03:10:05;72319.88;;;17.35;100.00
3160;BME280;1591;51.486;7.146;2022-08-21T03:12:33;72319.28;;;17.35;100.00
3160;BME280;1591;51.486;7.146;2022-08-21T03:15:01;72324.94;;;17.37;100.00
3160;BME280;1591;51.486;7.146;2022-08-21T03:17:28;72324.94;;;17.37;100.00
3160;BME280;1591;51.486;7.146;2022-08-21T03:19:57;72322.63;;;17.35;100.00
3160;BME280;1591;51.486;7.146;2022-08-21T03:22:24;72321.91;;;17.32;100.00
3160;BME280;1591;51.486;7.146;2022-08-21T03:24:51;72307.25;;;17.27;100.00
3160;BME280;1591;51.486;7.146;2022-08-21T03:27:19;72328.72;;;17.26;100.00
3160;BME280;1591;51.486;7.146;2022-08-21T03:29:47;72298.09;;;17.21;100.00
3160;BME280;1591;51.486;7.146;2022-08-21T03:32:13;72299.00;;;17.17;100.00
3160;BME280;1591;51.486;7.146;2022-08-21T03:34:40;72310.03;;;17.17;100.00
3160;BME280;1591;51.486;7.146;2022-08-21T03:37:11;72299.00;;;17.17;100.00
3160;BME280;1591;51.486;7.146;2022-08-21T03:39:38;72296.78;;;17.18;100.00
3160;BME280;1591;51.486;7.146;2022-08-21T03:42:07;72307.38;;;17.20;100.00
3160;BME280;1591;51.486;7.146;2022-08-21T03:44:35;72311.31;;;17.21;100.00
3160;BME280;1591;51.486;7.146;2022-08-21T03:47:02;72297.38;;;17.18;100.00
3160;BME280;1591;51.486;7.146;2022-08-21T03:49:30;72307.81;;;17.18;100.00
3160;BME280;1591;51.486;7.146;2022-08-21T03:51:57;72309.00;;;17.19;100.00
3160;BME280;1591;51.486;7.146;2022-08-21T03:54:26;72304.63;;;17.20;100.00
3160;BME280;1591;51.486;7.146;2022-08-21T03:56:53;72306.25;;;17.19;100.00
3160;BME280;1591;51.486;7.146;2022-08-21T03:59:20;72302.19;;;17.15;100.00
3160;BME280;1591;51.486;7.146;2022-08-21T04:01:55;72297.53;;;17.11;100.00
3160;BME280;1591;51.486;7.146;2022-08-21T04:04:22;72298.28;;;17.05;100.00
3160;BME280;1591;51.486;7.146;2022-08-21T04:06:49;72284.78;;;17.00;100.00
3160;BME280;1591;51.486;7.146;2022-08-21T04:09:17;72276.78;;;16.96;100.00
3160;BME280;1591;51.486;7.146;2022-08-21T04:11:46;72266.06;;;16.91;100.00
3160;BME280;1591;51.486;7.146;2022-08-21T04:14:14;72274.63;;;16.87;100.00
3160;BME280;1591;51.486;7.146;2022-08-21T04:16:41;72266.63;;;16.82;100.00
3160;BME280;1591;51.486;7.146;2022-08-21T04:19:08;72262.16;;;16.81;100.00
3160;BME280;1591;51.486;7.146;2022-08-21T04:21:36;72260.41;;;16.79;100.00
3160;BME280;1591;51.486;7.146;2022-08-21T04:24:05;72254.03;;;16.74;100.00
3160;BME280;1591;51.486;7.146;2022-08-21T04:26:33;72252.28;;;16.72;100.00
3160;BME280;1591;51.486;7.146;2022-08-21T04:29:02;72256.50;;;16.68;100.00
3160;BME280;1591;51.486;7.146;2022-08-21T04:31:30;72226.03;;;16.66;100.00
3160;BME280;1591;51.486;7.146;2022-08-21T04:33:58;72235.91;;;16.65;100.00
3160;BME280;1591;51.486;7.146;2022-08-21T04:36:25;72242.41;;;16.63;100.00
3160;BME280;1591;51.486;7.146;2022-08-21T04:38:53;72251.00;;;16.68;100.00
3160;BME280;1591;51.486;7.146;2022-08-21T04:41:20;72245.91;;;16.66;100.00
3160;BME280;1591;51.486;7.146;2022-08-21T04:43:47;72235.31;;;16.64;100.00
3160;BME280;1591;51.486;7.146;2022-08-21T04:46:15;72238.81;;;16.58;100.00
3160;BME280;1591;51.486;7.146;2022-08-21T04:48:42;72234.88;;;16.57;100.00
3160;BME280;1591;51.486;7.146;2022-08-21T04:51:14;72237.94;;;16.62;100.00
3160;BME280;1591;51.486;7.146;2022-08-21T04:53:45;72244.63;;;16.63;100.00
3160;BME280;1591;51.486;7.146;2022-08-21T04:56:18;72262.75;;;16.62;100.00
3160;BME280;1591;51.486;7.146;2022-08-21T04:58:47;72245.03;;;16.61;100.00
3160;BME280;1591;51.486;7.146;2022-08-21T05:01:20;72243.16;;;16.66;100.00
3160;BME280;1591;51.486;7.146;2022-08-21T05:03:52;72257.94;;;16.75;100.00
3160;BME280;1591;51.486;7.146;2022-08-21T05:06:22;72274.75;;;16.89;100.00
3160;BME280;1591;51.486;7.146;2022-08-21T05:08:53;72297.69;;;17.04;100.00
3160;BME280;1591;51.486;7.146;2022-08-21T05:11:22;72289.84;;;17.12;100.00
3160;BME280;1591;51.486;7.146;2022-08-21T05:13:49;72314.38;;;17.16;100.00
3160;BME280;1591;51.486;7.146;2022-08-21T05:16:18;72308.13;;;17.23;100.00
3160;BME280;1591;51.486;7.146;2022-08-21T05:18:45;72312.03;;;17.24;100.00
3160;BME280;1591;51.486;7.146;2022-08-21T05:21:12;72321.78;;;17.30;100.00
3160;BME280;1591;51.486;7.146;2022-08-21T05:23:39;72330.91;;;17.35;100.00
3160;BME280;1591;51.486;7.146;2022-08-21T05:26:06;72335.09;;;17.41;100.00
3160;BME280;1591;51.486;7.146;2022-08-21T05:28:33;72345.16;;;17.53;100.00
3160;BME280;1591;51.486;7.146;2022-08-21T05:31:00;72357.63;;;17.59;100.00
3160;BME280;1591;51.486;7.146;2022-08-21T05:33:29;72354.72;;;17.66;100.00
3160;BME280;1591;51.486;7.146;2022-08-21T05:35:56;72358.34;;;17.71;100.00
3160;BME280;1591;51.486;7.146;2022-08-21T05:38:25;72361.94;;;17.77;100.00
3160;BME280;1591;51.486;7.146;2022-08-21T05:40:53;72372.25;;;17.83;100.00
3160;BME280;1591;51.486;7.146;2022-08-21T05:43:20;72393.63;;;17.90;100.00
3160;BME280;1591;51.486;7.146;2022-08-21T05:45:48;72395.78;;;17.99;100.00
3160;BME280;1591;51.486;7.146;2022-08-21T05:48:17;72414.22;;;18.12;100.00
3160;BME280;1591;51.486;7.146;2022-08-21T05:50:48;72426.56;;;18.25;100.00
3160;BME280;1591;51.486;7.146;2022-08-21T05:53:18;72430.03;;;18.28;100.00
3160;BME280;1591;51.486;7.146;2022-08-21T05:55:47;72435.09;;;18.40;100.00
3160;BME280;1591;51.486;7.146;2022-08-21T05:58:16;72447.75;;;18.49;100.00
3160;BME280;1591;51.486;7.146;2022-08-21T06:00:45;72460.41;;;18.57;100.00
3160;BME280;1591;51.486;7.146;2022-08-21T06:03:14;72459.50;;;18.61;100.00
3160;BME280;1591;51.486;7.146;2022-08-21T06:05:42;72479.84;;;18.69;100.00
3160;BME280;1591;51.486;7.146;2022-08-21T06:08:11;72481.44;;;18.78;100.00
3160;BME280;1591;51.486;7.146;2022-08-21T06:10:38;72491.75;;;18.84;100.00
3160;BME280;1591;51.486;7.146;2022-08-21T06:13:06;72500.59;;;18.94;100.00
3160;BME280;1591;51.486;7.146;2022-08-21T06:15:34;72508.16;;;19.01;100.00
3160;BME280;1591;51.486;7.146;2022-08-21T06:18:01;72521.06;;;19.15;100.00
3160;BME280;1591;51.486;7.146;2022-08-21T06:20:28;72527.47;;;19.20;100.00
3160;BME280;1591;51.486;7.146;2022-08-21T06:22:56;72533.31;;;19.16;100.00
3160;BME280;1591;51.486;7.146;2022-08-21T06:25:26;72547.38;;;19.30;100.00
3160;BME280;1591;51.486;7.146;2022-08-21T06:28:09;72546.94;;;19.32;100.00
3160;BME280;1591;51.486;7.146;2022-08-21T06:30:39;72574.84;;;19.56;100.00
3160;BME280;1591;51.486;7.146;2022-08-21T06:33:08;72581.66;;;19.69;100.00
3160;BME280;1591;51.486;7.146;2022-08-21T06:35:35;72603.78;;;19.79;100.00
3160;BME280;1591;51.486;7.146;2022-08-21T06:38:03;72604.06;;;19.84;100.00
3160;BME280;1591;51.486;7.146;2022-08-21T06:40:31;72618.00;;;19.96;100.00
3160;BME280;1591;51.486;7.146;2022-08-21T06:43:06;72625.00;;;20.02;100.00
3160;BME280;1591;51.486;7.146;2022-08-21T06:45:35;72640.09;;;20.15;100.00
3160;BME280;1591;51.486;7.146;2022-08-21T06:48:04;72633.25;;;20.12;100.00
3160;BME280;1591;51.486;7.146;2022-08-21T06:50:33;72638.63;;;20.19;100.00
3160;BME280;1591;51.486;7.146;2022-08-21T06:53:04;72653.31;;;20.34;100.00
3160;BME280;1591;51.486;7.146;2022-08-21T06:55:33;72671.22;;;20.47;100.00
3160;BME280;1591;51.486;7.146;2022-08-21T06:58:01;72678.06;;;20.50;100.00
3160;BME280;1591;51.486;7.146;2022-08-21T07:00:29;72690.16;;;20.58;100.00
3160;BME280;1591;51.486;7.146;2022-08-21T07:02:59;72684.47;;;20.56;100.00
3160;BME280;1591;51.486;7.146;2022-08-21T07:05:27;72696.22;;;20.69;100.00
3160;BME280;1591;51.486;7.146;2022-08-21T07:07:56;72711.22;;;20.79;100.00
3160;BME280;1591;51.486;7.146;2022-08-21T07:10:24;72730.41;;;20.96;100.00
3160;BME280;1591;51.486;7.146;2022-08-21T07:12:54;72744.38;;;21.08;100.00
3160;BME280;1591;51.486;7.146;2022-08-21T07:15:24;72754.41;;;21.19;100.00
3160;BME280;1591;51.486;7.146;2022-08-21T07:17:51;72766.63;;;21.29;100.00
3160;BME280;1591;51.486;7.146;2022-08-21T07:20:18;72782.34;;;21.43;100.00
3160;BME280;1591;51.486;7.146;2022-08-21T07:22:45;72807.22;;;21.62;100.00
3160;BME280;1591;51.486;7.146;2022-08-21T07:25:14;72814.34;;;21.71;100.00
3160;BME280;1591;51.486;7.146;2022-08-21T07:27:41;72802.00;;;21.58;100.00
3160;BME280;1591;51.486;7.146;2022-08-21T07:30:10;72811.88;;;21.66;100.00
3160;BME280;1591;51.486;7.146;2022-08-21T07:32:39;72838.69;;;21.89;100.00
3160;BME280;1591;51.486;7.146;2022-08-21T07:35:11;72808.66;;;21.68;100.00
3160;BME280;1591;51.486;7.146;2022-08-21T07:37:43;72848.59;;;21.98;100.00
3160;BME280;1591;51.486;7.146;2022-08-21T07:40:12;72886.31;;;22.28;100.00
3160;BME280;1591;51.486;7.146;2022-08-21T07:42:41;72919.00;;;22.47;100.00
3160;BME280;1591;51.486;7.146;2022-08-21T07:45:11;72926.06;;;22.65;100.00
3160;BME280;1591;51.486;7.146;2022-08-21T07:47:40;72928.66;;;22.72;100.00
3160;BME280;1591;51.486;7.146;2022-08-21T07:50:07;72950.53;;;22.86;100.00
3160;BME280;1591;51.486;7.146;2022-08-21T07:52:34;72931.31;;;22.69;100.00
3160;BME280;1591;51.486;7.146;2022-08-21T07:55:03;72911.91;;;22.50;100.00
3160;BME280;1591;51.486;7.146;2022-08-21T07:57:30;72927.22;;;22.66;100.00
3160;BME280;1591;51.486;7.146;2022-08-21T07:59:57;72946.31;;;22.80;100.00
3160;BME280;1591;51.486;7.146;2022-08-21T08:02:29;72953.13;;;22.93;100.00
3160;BME280;1591;51.486;7.146;2022-08-21T08:04:59;72972.34;;;23.10;100.00
3160;BME280;1591;51.486;7.146;2022-08-21T08:07:27;72973.84;;;23.06;100.00
3160;BME280;1591;51.486;7.146;2022-08-21T08:09:54;72981.84;;;23.11;100.00
3160;BME280;1591;51.486;7.146;2022-08-21T08:12:21;72992.47;;;23.22;100.00
3160;BME280;1591;51.486;7.146;2022-08-21T08:14:48;72988.72;;;23.14;100.00
3160;BME280;1591;51.486;7.146;2022-08-21T08:17:15;72933.31;;;22.76;100.00
3160;BME280;1591;51.486;7.146;2022-08-21T08:19:46;72959.69;;;22.91;100.00
3160;BME280;1591;51.486;7.146;2022-08-21T08:22:14;72968.00;;;23.01;100.00
3160;BME280;1591;51.486;7.146;2022-08-21T08:24:42;73001.53;;;23.25;100.00
3160;BME280;1591;51.486;7.146;2022-08-21T08:27:09;72955.19;;;22.90;100.00
3160;BME280;1591;51.486;7.146;2022-08-21T08:29:36;72926.63;;;22.65;100.00
3160;BME280;1591;51.486;7.146;2022-08-21T08:32:05;72958.56;;;22.90;100.00
3160;BME280;1591;51.486;7.146;2022-08-21T08:34:32;72990.72;;;23.21;100.00
3160;BME280;1591;51.486;7.146;2022-08-21T08:37:01;73006.84;;;23.42;100.00
3160;BME280;1591;51.486;7.146;2022-08-21T08:39:30;73014.44;;;23.48;100.00
3160;BME280;1591;51.486;7.146;2022-08-21T08:42:05;73001.63;;;23.37;100.00
3160;BME280;1591;51.486;7.146;2022-08-21T08:44:33;73007.31;;;23.40;100.00
3160;BME280;1591;51.486;7.146;2022-08-21T08:47:01;73023.31;;;23.58;100.00
3160;BME280;1591;51.486;7.146;2022-08-21T08:49:34;73033.88;;;23.58;100.00
3160;BME280;1591;51.486;7.146;2022-08-21T08:52:10;73064.88;;;23.87;100.00
3160;BME280;1591;51.486;7.146;2022-08-21T08:54:45;73078.69;;;24.06;100.00
3160;BME280;1591;51.486;7.146;2022-08-21T08:57:19;73098.97;;;24.21;100.00
3160;BME280;1591;51.486;7.146;2022-08-21T08:59:50;73105.97;;;24.27;100.00
3160;BME280;1591;51.486;7.146;2022-08-21T09:02:19;73105.13;;;24.22;100.00
3160;BME280;1591;51.486;7.146;2022-08-21T09:04:48;73123.81;;;24.38;100.00
3160;BME280;1591;51.486;7.146;2022-08-21T09:07:26;73036.44;;;23.65;100.00
3160;BME280;1591;51.486;7.146;2022-08-21T09:10:09;73094.66;;;24.13;100.00
3160;BME280;1591;51.486;7.146;2022-08-21T09:12:46;73132.53;;;24.45;100.00
3160;BME280;1591;51.486;7.146;2022-08-21T09:15:24;73153.44;;;24.61;100.00
3160;BME280;1591;51.486;7.146;2022-08-21T09:18:16;73076.53;;;23.97;100.00
3160;BME280;1591;51.486;7.146;2022-08-21T09:21:02;73128.34;;;24.39;100.00
3160;BME280;1591;51.486;7.146;2022-08-21T09:23:43;73115.03;;;24.30;100.00
3160;BME280;1591;51.486;7.146;2022-08-21T09:26:17;73127.06;;;24.36;100.00
3160;BME280;1591;51.486;7.146;2022-08-21T09:28:46;73139.53;;;24.52;100.00
3160;BME280;1591;51.486;7.146;2022-08-21T09:31:23;73150.63;;;24.61;100.00
3160;BME280;1591;51.486;7.146;2022-08-21T09:33:59;73150.16;;;24.63;100.00
3160;BME280;1591;51.486;7.146;2022-08-21T09:36:37;73135.91;;;24.46;100.00
3160;BME280;1591;51.486;7.146;2022-08-21T09:39:06;73108.19;;;24.27;100.00
3160;BME280;1591;51.486;7.146;2022-08-21T09:41:36;73111.66;;;24.30;100.00
3160;BME280;1591;51.486;7.146;2022-08-21T09:44:07;73134.28;;;24.47;100.00
3160;BME280;1591;51.486;7.146;2022-08-21T09:46:35;73139.41;;;24.49;100.00
3160;BME280;1591;51.486;7.146;2022-08-21T09:49:05;73158.78;;;24.68;100.00
3160;BME280;1591;51.486;7.146;2022-08-21T09:51:36;73159.41;;;24.47;100.00
3160;BME280;1591;51.486;7.146;2022-08-21T09:54:20;73150.75;;;24.64;100.00
3160;BME280;1591;51.486;7.146;2022-08-21T09:56:58;73191.94;;;24.94;100.00
3160;BME280;1591;51.486;7.146;2022-08-21T09:59:45;73219.47;;;25.20;100.00
3160;BME280;1591;51.486;7.146;2022-08-21T10:02:27;73228.47;;;25.33;100.00
3160;BME280;1591;51.486;7.146;2022-08-21T10:05:00;73192.63;;;24.97;100.00
3160;BME280;1591;51.486;7.146;2022-08-21T10:07:29;73236.97;;;25.36;100.00
3160;BME280;1591;51.486;7.146;2022-08-21T10:10:13;73279.03;;;25.72;100.00
3160;BME280;1591;51.486;7.146;2022-08-21T10:12:50;73290.13;;;25.81;97.92
3160;BME280;1591;51.486;7.146;2022-08-21T10:15:35;73318.97;;;26.11;99.83
3160;BME280;1591;51.486;7.146;2022-08-21T10:18:22;73359.16;;;26.43;99.16
3160;BME280;1591;51.486;7.146;2022-08-21T10:21:02;73343.97;;;26.30;93.36
3160;BME280;1591;51.486;7.146;2022-08-21T10:23:48;73350.38;;;26.36;94.42
3160;BME280;1591;51.486;7.146;2022-08-21T10:26:32;73353.19;;;26.36;94.67
3160;BME280;1591;51.486;7.146;2022-08-21T10:29:12;73341.63;;;26.28;93.22
3160;BME280;1591;51.486;7.146;2022-08-21T10:31:50;73357.63;;;26.35;94.29
3160;BME280;1591;51.486;7.146;2022-08-21T10:34:37;73355.66;;;26.40;91.26
3160;BME280;1591;51.486;7.146;2022-08-21T10:37:22;73356.09;;;26.38;92.48
3160;BME280;1591;51.486;7.146;2022-08-21T10:40:07;73341.63;;;26.28;90.57
3160;BME280;1591;51.486;7.146;2022-08-21T10:43:01;73332.41;;;26.23;92.65
3160;BME280;1591;51.486;7.146;2022-08-21T10:45:43;73272.03;;;25.66;93.29
3160;BME280;1591;51.486;7.146;2022-08-21T10:48:24;73274.38;;;25.68;93.38
3160;BME280;1591;51.486;7.146;2022-08-21T10:50:58;73282.53;;;25.75;91.85
3160;BME280;1591;51.486;7.146;2022-08-21T10:53:42;73293.25;;;25.89;91.35
3160;BME280;1591;51.486;7.146;2022-08-21T10:56:17;73271.66;;;25.70;86.98
3160;BME280;1591;51.486;7.146;2022-08-21T10:59:02;73252.41;;;25.54;88.26
3160;BME280;1591;51.486;7.146;2022-08-21T11:01:39;73291.28;;;25.82;89.02
3160;BME280;1591;51.486;7.146;2022-08-21T11:04:15;73299.91;;;25.87;87.16
3160;BME280;1591;51.486;7.146;2022-08-21T11:06:48;73327.38;;;26.11;90.37
3160;BME280;1591;51.486;7.146;2022-08-21T11:09:23;73321.78;;;26.11;90.32
3160;BME280;1591;51.486;7.146;2022-08-21T11:11:56;73312.28;;;26.00;87.12
3160;BME280;1591;51.486;7.146;2022-08-21T11:14:39;73326.09;;;26.20;89.92
3160;BME280;1591;51.486;7.146;2022-08-21T11:17:12;73355.88;;;26.45;89.70
3160;BME280;1591;51.486;7.146;2022-08-21T11:19:46;73361.50;;;26.45;88.05
3160;BME280;1591;51.486;7.146;2022-08-21T11:22:22;73378.19;;;26.55;87.27
3160;BME280;1591;51.486;7.146;2022-08-21T11:24:59;73312.41;;;26.03;83.73
3160;BME280;1591;51.486;7.146;2022-08-21T11:27:33;73335.66;;;26.21;83.84
3160;BME280;1591;51.486;7.146;2022-08-21T11:30:07;73347.34;;;26.31;86.59
3160;BME280;1591;51.486;7.146;2022-08-21T11:33:01;73309.63;;;26.03;84.88
3160;BME280;1591;51.486;7.146;2022-08-21T11:35:38;73340.13;;;26.32;85.58
3160;BME280;1591;51.486;7.146;2022-08-21T11:38:22;73387.06;;;26.65;84.13
3160;BME280;1591;51.486;7.146;2022-08-21T11:41:13;73403.78;;;26.87;85.44
3160;BME280;1591;51.486;7.146;2022-08-21T11:43:46;73425.53;;;26.96;85.27
3160;BME280;1591;51.486;7.146;2022-08-21T11:46:34;73413.47;;;26.90;84.91
3160;BME280;1591;51.486;7.146;2022-08-21T11:49:18;73408.22;;;26.86;85.16
3160;BME280;1591;51.486;7.146;2022-08-21T11:52:03;73352.38;;;26.30;81.23
3160;BME280;1591;51.486;7.146;2022-08-21T11:54:39;73336.84;;;26.22;83.36
3160;BME280;1591;51.486;7.146;2022-08-21T11:57:17;73356.00;;;26.36;86.06
3160;BME280;1591;51.486;7.146;2022-08-21T11:59:57;73379.13;;;26.63;88.29
3160;BME280;1591;51.486;7.146;2022-08-21T12:02:34;73392.13;;;26.77;86.17
3160;BME280;1591;51.486;7.146;2022-08-21T12:05:06;73366.84;;;26.52;86.40
3160;BME280;1591;51.486;7.146;2022-08-21T12:07:39;73357.38;;;26.42;86.59
3160;BME280;1591;51.486;7.146;2022-08-21T12:10:10;73349.31;;;26.37;85.12
3160;BME280;1591;51.486;7.146;2022-08-21T12:12:40;73356.56;;;26.36;87.45
3160;BME280;1591;51.486;7.146;2022-08-21T12:15:25;73339.44;;;26.29;85.38
3160;BME280;1591;51.486;7.146;2022-08-21T12:17:58;73376.91;;;26.51;89.61
3160;BME280;1591;51.486;7.146;2022-08-21T12:20:45;73351.56;;;26.37;86.86
3160;BME280;1591;51.486;7.146;2022-08-21T12:23:30;73362.66;;;26.46;85.83
3160;BME280;1591;51.486;7.146;2022-08-21T12:26:17;73356.34;;;26.43;87.85
3160;BME280;1591;51.486;7.146;2022-08-21T12:28:45;73377.13;;;26.56;88.37
3160;BME280;1591;51.486;7.146;2022-08-21T12:31:22;73387.28;;;26.70;87.36
3160;BME280;1591;51.486;7.146;2022-08-21T12:33:58;73356.34;;;26.43;83.24
3160;BME280;1591;51.486;7.146;2022-08-21T12:36:41;73355.06;;;26.40;84.96
3160;BME280;1591;51.486;7.146;2022-08-21T12:39:15;73369.66;;;26.52;85.51
3160;BME280;1591;51.486;7.146;2022-08-21T12:41:49;73364.28;;;26.45;84.36
3160;BME280;1591;51.486;7.146;2022-08-21T12:44:24;73369.91;;;26.57;87.30
3160;BME280;1591;51.486;7.146;2022-08-21T12:47:00;73379.00;;;26.60;83.19
3160;BME280;1591;51.486;7.146;2022-08-21T12:49:35;73394.22;;;26.73;83.74
3160;BME280;1591;51.486;7.146;2022-08-21T12:52:10;73401.22;;;26.80;83.42
3160;BME280;1591;51.486;7.146;2022-08-21T12:54:43;73409.41;;;26.87;85.83
3160;BME280;1591;51.486;7.146;2022-08-21T12:57:21;73366.66;;;26.84;81.33
3160;BME280;1591;51.486;7.146;2022-08-21T12:59:54;73387.28;;;26.70;81.92
3160;BME280;1591;51.486;7.146;2022-08-21T13:02:26;73380.75;;;26.62;83.82
3160;BME280;1591;51.486;7.146;2022-08-21T13:04:58;73370.50;;;26.58;83.66
3160;BME280;1591;51.486;7.146;2022-08-21T13:07:45;73371.28;;;26.51;84.85
3160;BME280;1591;51.486;7.146;2022-08-21T13:10:20;73337.66;;;26.27;85.85
3160;BME280;1591;51.486;7.146;2022-08-21T13:12:50;73344.09;;;26.33;82.78
3160;BME280;1591;51.486;7.146;2022-08-21T13:15:27;73350.84;;;26.34;82.17
3160;BME280;1591;51.486;7.146;2022-08-21T13:17:57;73352.84;;;26.40;82.09
3160;BME280;1591;51.486;7.146;2022-08-21T13:20:32;73384.25;;;26.65;82.93
3160;BME280;1591;51.486;7.146;2022-08-21T13:23:01;73398.50;;;26.70;80.71
3160;BME280;1591;51.486;7.146;2022-08-21T13:25:34;73388.59;;;26.73;80.29
3160;BME280;1591;51.486;7.146;2022-08-21T13:28:12;73370.38;;;26.55;80.00
3160;BME280;1591;51.486;7.146;2022-08-21T13:30:43;73389.19;;;26.74;81.29
3160;BME280;1591;51.486;7.146;2022-08-21T13:33:14;73420.38;;;26.94;82.48
3160;BME280;1591;51.486;7.146;2022-08-21T13:35:51;73414.78;;;26.94;82.45